Latest Weather Observations for Albury

IDV60801

Issued at 5:32 pm EDT Saturday 25 February 2017 (issued every 30 minutes, with the page automatically refreshed every 10 minutes)

About weather observations | Map of weather stations | Latest weather observations for VIC | Other Formats
Station Details ID: 072160 Name: ALBURY AIRPORT AWS Lat: -36.07 Lon: 146.95 Height: 163.5 m
Data from the previous 72 hours. | See also: Recent months at Albury
Date/Time
EDT
Temp
°C
App
Temp
°C
Dew
Point
°C
Rel
Hum
%
Delta-T
°C
Wind Press
QNH
hPa
Press
MSL
hPa
Rain since
9am
mm
Dir  Spd
km/h
Gust
km/h
Spd
kts
Gust
kts
25/05:30pm 28.9 27.9 11.0 33 10.3 S 7 20 4 11 1015.6 1014.9 0.0
25/05:00pm 29.1 27.0 9.8 30 10.9 SE 11 17 6 9 1015.9 1015.1 0.0
25/04:30pm 29.9 28.0 11.9 33 10.6 ESE 13 19 7 10 1016.0 1015.2 0.0
25/04:00pm 29.0 27.3 11.1 33 10.3 SSE 11 20 6 11 1016.4 1015.6 0.0
25/03:30pm 29.7 28.9 11.7 33 10.5 SW 7 13 4 7 1016.8 1016.0 0.0
25/03:00pm 28.9 27.4 11.9 35 9.9 S 11 20 6 11 1017.2 1016.4 0.0
25/02:30pm 27.9 25.9 11.5 36 9.5 SSE 13 17 7 9 1017.7 1016.9 0.0
25/02:00pm 27.5 26.3 11.5 37 9.2 S 9 19 5 10 1018.2 1017.4 0.0
25/01:30pm 26.5 24.5 11.4 39 8.7 SE 13 19 7 10 1018.4 1017.6 0.0
25/01:00pm 26.5 24.4 11.0 38 8.8 SE 13 19 7 10 1018.8 1018.0 0.0
25/12:30pm 25.9 23.7 10.9 39 8.5 SSE 13 20 7 11 1019.2 1018.5 0.0
25/12:00pm 24.6 21.6 10.5 41 7.9 SE 17 24 9 13 1019.7 1019.0 0.0
25/11:30am 23.4 19.6 9.8 42 7.5 SSE 20 28 11 15 1019.9 1019.2 0.0
25/11:00am 22.9 19.5 10.7 46 6.8 SE 19 24 10 13 1020.3 1019.6 0.0
25/10:30am 21.9 18.1 9.8 46 6.6 SSE 20 28 11 15 1020.5 1019.8 0.0
25/10:00am 21.2 17.4 9.8 48 6.2 SSE 20 26 11 14 1020.5 1019.8 0.0
25/09:30am 20.1 16.3 9.1 49 5.9 SE 19 26 10 14 1020.3 1019.6 0.0
25/09:00am 19.5 15.5 9.1 51 5.5 SE 20 30 11 16 1020.1 1019.4 0.0
25/08:30am 18.7 16.0 8.9 53 5.2 SE 13 22 7 12 1020.1 1019.4 0.0
25/08:00am 17.9 15.5 8.7 55 4.8 SE 11 15 6 8 1020.0 1019.3 0.0
25/07:30am 17.0 14.5 8.2 56 4.5 SE 11 15 6 8 1019.7 1019.0 0.0
25/07:00am 16.5 13.6 8.2 58 4.2 SE 13 17 7 9 1019.5 1018.8 0.0
25/06:30am 16.1 14.0 8.1 59 4.1 SSE 9 15 5 8 1019.4 1018.7 0.0
25/06:00am 16.6 14.2 8.6 59 4.1 SSE 11 17 6 9 1019.1 1018.3 0.0
25/05:30am 15.6 13.1 8.4 62 3.7 S 11 15 6 8 1018.7 1017.9 0.0
25/05:00am 16.1 14.4 8.3 60 4.0 SSE 7 9 4 5 1018.3 1017.5 0.0
25/04:30am 16.4 14.3 8.1 58 4.2 SSE 9 11 5 6 1018.2 1017.4 0.0
25/04:00am 17.3 15.8 8.4 56 4.6 SSE 6 9 3 5 1018.1 1017.3 0.0
25/03:30am 17.8 15.3 8.1 53 5.0 SE 11 17 6 9 1018.3 1017.5 0.0
25/03:00am 18.3 15.4 8.0 51 5.3 SE 13 19 7 10 1018.3 1017.5 0.0
25/02:30am 18.7 16.2 8.4 51 5.4 SE 11 17 6 9 1018.5 1017.7 0.0
25/02:00am 18.9 15.6 8.0 49 5.6 SE 15 22 8 12 1018.5 1017.7 0.0
25/01:30am 19.3 15.5 7.7 47 6.0 SSE 17 26 9 14 1018.7 1017.9 0.0
25/01:00am 19.6 16.7 8.3 48 5.9 SSE 13 20 7 11 1018.7 1017.9 0.0
25/12:30am 20.2 16.9 9.5 50 5.7 SE 17 24 9 13 1018.6 1017.8 0.0
25/12:00am 20.4 18.2 10.8 54 5.3 ESE 13 20 7 11 1018.7 1017.9 0.0
 
Date/Time
EDT
Temp
°C
App
Temp
°C
Dew
Point
°C
Rel
Hum
%
Delta-T
°C
Wind Press
QNH
hPa
Press
MSL
hPa
Rain since
9am
mm
Dir  Spd
km/h
Gust
km/h
Spd
kts
Gust
kts
24/11:30pm 21.1 19.3 12.0 56 5.1 ESE 13 17 7 9 1018.7 1017.9 0.0
24/11:00pm 21.8 19.3 12.4 55 5.3 SE 17 26 9 14 1018.6 1017.8 0.0
24/10:30pm 22.3 20.6 12.5 53 5.6 SSE 13 19 7 10 1018.5 1017.7 0.0
24/10:00pm 23.0 21.4 10.1 44 7.1 S 9 11 5 6 1018.3 1017.5 0.0
24/09:30pm 24.1 21.6 9.7 40 7.9 WSW 13 17 7 9 1017.9 1017.1 0.0
24/09:00pm 24.8 21.4 9.1 37 8.6 W 17 24 9 13 1017.3 1016.5 0.0
24/08:30pm 25.9 22.2 8.0 32 9.6 W 17 22 9 12 1017.0 1016.2 0.0
24/08:00pm 27.2 23.1 6.0 26 11.1 W 17 22 9 12 1016.6 1015.8 0.0
24/07:30pm 29.2 24.1 3.2 19 13.1 W 19 26 10 14 1016.4 1015.6 0.0
24/07:00pm 30.6 25.4 3.6 18 13.9 WSW 20 24 11 13 1016.2 1015.4 0.0
24/06:30pm 31.5 26.8 5.1 19 14.0 WSW 19 26 10 14 1016.1 1015.3 0.0
24/06:00pm 31.9 27.2 3.0 16 14.8 SW 17 24 9 13 1016.1 1015.3 0.0
24/05:30pm 33.1 27.8 2.1 14 15.8 SW 19 26 10 14 1016.0 1015.2 0.0
24/05:00pm 32.8 26.9 1.8 14 15.6 WSW 22 32 12 17 1016.1 1015.3 0.0
24/04:30pm 32.9 27.9 4.6 17 15.0 W 20 35 11 19 1016.3 1015.5 0.0
24/04:00pm 32.8 28.0 4.6 17 14.9 WSW 19 28 10 15 1016.4 1015.6 0.0
24/03:30pm 32.8 28.0 5.4 18 14.7 W 20 30 11 16 1016.8 1016.0 0.0
24/03:00pm 32.9 27.9 3.8 16 15.2 WNW 19 32 10 17 1017.0 1016.2 0.0
24/02:30pm 31.5 28.0 7.2 22 13.3 NW 15 26 8 14 1017.5 1016.7 0.0
24/02:00pm 31.4 28.6 8.4 24 12.8 WSW 13 19 7 10 1018.1 1017.3 0.0
24/01:30pm 30.1 27.0 7.3 24 12.4 WSW 13 26 7 14 1018.5 1017.7 0.0
24/01:00pm 30.2 28.0 8.0 25 12.2 WNW 9 17 5 9 1019.0 1018.2 0.0
24/12:30pm 28.7 26.2 8.4 28 11.2 SSW 11 19 6 10 1019.4 1018.7 0.0
24/12:00pm 28.2 26.5 9.9 32 10.3 WSW 9 17 5 9 1019.8 1019.1 0.0
24/11:30am 27.1 26.2 11.2 37 9.1 ESE 7 13 4 7 1020.0 1019.3 0.0
24/11:00am 25.8 25.0 11.6 41 8.1 ESE 7 11 4 6 1020.1 1019.4 0.0
24/10:30am 24.3 23.8 11.9 45 7.1 SSE 6 11 3 6 1020.4 1019.7 0.0
24/10:00am 23.2 23.4 11.9 49 6.4 S 2 7 1 4 1020.4 1019.7 0.0
24/09:30am 22.4 22.1 12.6 54 5.6 S 6 9 3 5 1020.2 1019.5 0.0
24/09:00am 20.6 19.1 10.4 52 5.6 SSE 9 13 5 7 1020.1 1019.4 0.0
24/08:30am 19.3 18.2 9.8 54 5.1 SSE 6 7 3 4 1020.0 1019.3 0.0
24/08:00am 17.2 16.0 9.6 61 4.0 S 6 9 3 5 1019.7 1019.0 0.0
24/07:30am 15.9 15.3 9.1 64 3.5 SSE 2 6 1 3 1019.4 1018.7 0.0
24/07:00am 15.4 14.8 9.1 66 3.2 SSE 2 6 1 3 1019.1 1018.3 0.0
24/06:30am 15.8 14.5 9.2 65 3.4 SW 6 7 3 4 1018.7 1017.9 0.0
24/06:00am 15.6 15.3 8.8 64 3.5 CALM 0 7 0 4 1018.2 1017.4 0.0
24/05:30am 15.8 15.6 9.0 64 3.5 CALM 0 0 0 0 1017.9 1017.1 0.0
24/05:00am 15.3 14.7 8.8 65 3.3 W 2 6 1 3 1017.7 1016.9 0.0
24/04:30am 15.8 15.2 9.0 64 3.5 NE 2 6 1 3 1017.7 1016.9 0.0
24/04:00am 16.7 16.6 9.6 63 3.7 CALM 0 0 0 0 1017.6 1016.8 0.0
24/03:30am 17.3 17.0 10.2 63 3.8 SE 2 7 1 4 1017.4 1016.6 0.0
24/03:00am 15.8 15.2 8.8 63 3.6 SE 2 7 1 4 1017.4 1016.6 0.0
24/02:30am 17.2 16.6 9.1 59 4.2 E 2 6 1 3 1017.3 1016.5 0.0
24/02:00am 17.7 17.6 9.3 58 4.4 CALM 0 0 0 0 1017.5 1016.7 0.0
24/01:30am 18.5 18.3 9.0 54 5.0 CALM 0 6 0 3 1017.6 1016.8 0.0
24/01:00am 19.5 19.6 10.2 55 5.0 CALM 0 6 0 3 1017.7 1016.9 0.0
24/12:30am 20.5 20.3 9.1 48 6.1 CALM 0 0 0 0 1017.7 1016.9 0.0
24/12:00am 20.9 20.6 8.5 45 6.5 CALM 0 0 0 0 1017.7 1016.9 0.0
 
Date/Time
EDT
Temp
°C
App
Temp
°C
Dew
Point
°C
Rel
Hum
%
Delta-T
°C
Wind Press
QNH
hPa
Press
MSL
hPa
Rain since
9am
mm
Dir  Spd
km/h
Gust
km/h
Spd
kts
Gust
kts
23/11:30pm 22.4 22.0 8.1 40 7.6 CALM 0 0 0 0 1017.7 1016.9 0.0
23/11:00pm 24.0 23.5 8.0 36 8.5 CALM 0 0 0 0 1017.7 1016.9 0.0
23/10:30pm 24.8 23.0 7.9 34 9.0 WSW 7 11 4 6 1017.5 1016.7 0.0
23/10:00pm 25.6 23.4 7.7 32 9.6 W 9 17 5 9 1017.4 1016.6 0.0
23/09:30pm 26.5 24.5 7.0 29 10.4 W 7 11 4 6 1017.1 1016.3 0.0
23/09:00pm 27.1 23.9 7.0 28 10.7 W 13 15 7 8 1016.7 1015.9 0.0
23/08:30pm 27.2 23.9 6.6 27 10.9 W 13 15 7 8 1016.4 1015.6 0.0
23/08:00pm 29.1 25.3 5.9 23 12.3 W 15 19 8 10 1016.1 1015.3 0.0
23/07:30pm 31.6 27.3 5.2 19 14.0 WSW 17 22 9 12 1015.8 1015.0 0.0
23/07:00pm 32.9 28.1 4.6 17 15.0 W 19 26 10 14 1015.4 1014.7 0.0
23/06:30pm 33.5 28.3 3.3 15 15.7 W 20 30 11 16 1015.4 1014.7 0.0
23/06:00pm 34.6 29.9 5.1 16 15.9 WSW 19 24 10 13 1015.2 1014.5 0.0
23/05:30pm 34.5 29.6 5.0 16 15.8 WSW 20 33 11 18 1015.1 1014.4 0.0
23/05:00pm 34.8 29.6 5.3 16 15.9 WSW 22 33 12 18 1015.0 1014.3 0.0
23/04:30pm 35.1 29.9 3.6 14 16.6 NW 20 33 11 18 1015.0 1014.3 0.0
23/04:00pm 35.5 30.4 3.9 14 16.8 WSW 20 30 11 16 1015.2 1014.5 0.0
23/03:30pm 35.7 30.6 4.1 14 16.8 WSW 20 30 11 16 1015.3 1014.6 0.0
23/03:00pm 34.7 28.9 4.3 15 16.2 WSW 24 32 13 17 1015.8 1015.0 0.0
23/02:30pm 34.4 28.9 4.0 15 16.1 WSW 22 30 12 16 1015.9 1015.1 0.0
23/02:00pm 33.8 29.0 4.5 16 15.5 W 19 30 10 16 1016.0 1015.2 0.0
23/01:30pm 33.3 29.7 6.6 19 14.6 SW 15 26 8 14 1016.2 1015.4 0.0
23/01:00pm 33.2 30.5 7.2 20 14.4 W 11 19 6 10 1016.3 1015.5 0.0
23/12:30pm 32.8 29.7 5.4 18 14.7 NNW 11 17 6 9 1016.5 1015.7 0.0
23/12:00pm 32.3 29.5 5.0 18 14.5 N 9 17 5 9 1016.7 1015.9 0.0
23/11:30am 31.2 29.6 8.2 24 12.8 NNW 6 13 3 7 1016.8 1016.0 0.0
23/11:00am 29.6 27.8 8.1 26 11.8 NNE 7 11 4 6 1016.9 1016.1 0.0
23/10:30am 27.8 27.4 9.6 32 10.2 NW 2 9 1 5 1016.8 1016.0 0.0
23/10:00am 25.1 24.9 10.6 40 8.1 SSE 2 7 1 4 1016.8 1016.0 0.0
23/09:30am 22.8 22.1 11.5 49 6.4 SSE 6 7 3 4 1016.9 1016.1 0.0
23/09:00am 21.3 20.6 11.3 53 5.6 SE 6 7 3 4 1016.7 1015.9 0.0
23/08:30am 18.4 18.5 10.0 58 4.5 CALM 0 4 0 2 1016.3 1015.5 0.0
23/08:00am 17.1 17.1 9.8 62 3.9 CALM 0 0 0 0 1016.1 1015.3 0.0
23/07:30am 15.9 16.0 10.0 68 3.1 CALM 0 0 0 0 1015.5 1014.8 0.0
23/07:00am 15.5 15.4 9.4 67 3.2 CALM 0 0 0 0 1014.9 1014.2 0.0
23/06:30am 15.6 14.3 9.1 65 3.4 ESE 6 7 3 4 1014.6 1013.9 0.0
23/06:00am 15.7 14.3 8.9 64 3.5 SE 6 7 3 4 1014.3 1013.6 0.0
23/05:30am 16.5 15.1 8.7 60 4.0 SE 6 9 3 5 1014.1 1013.4 0.0
23/05:00am 17.9 15.8 8.2 53 5.0 ESE 9 13 5 7 1014.0 1013.3 0.0
23/04:30am 19.3 16.7 9.2 52 5.4 WSW 13 22 7 12 1013.6 1012.8 0.0
23/04:27am 21.2 18.6 9.4 47 6.4 WSW 13 20 7 11 1013.2 1012.4 0.0
23/04:00am 14.9 13.1 9.5 70 2.8 S 9 13 5 7 1012.7 1011.9 0.0
23/03:30am 15.9 14.6 9.1 64 3.5 SE 6 9 3 5 1012.9 1012.1 0.0
23/03:00am 15.8 14.4 8.8 63 3.6 E 6 7 3 4 1013.2 1012.4 0.0
23/02:30am 17.4 16.1 9.3 59 4.3 SE 6 7 3 4 1013.4 1012.6 0.0
23/02:00am 17.2 15.6 8.9 58 4.3 SE 7 11 4 6 1013.5 1012.7 0.0
23/01:30am 17.1 15.7 9.0 59 4.2 SSE 6 9 3 5 1013.6 1012.8 0.0
23/01:00am 18.4 15.9 8.1 51 5.3 SE 11 15 6 8 1013.7 1012.9 0.0
23/12:30am 20.6 18.4 9.2 48 6.1 SE 11 13 6 7 1013.7 1012.9 0.0
23/12:00am 18.8 17.3 9.3 54 5.0 SSE 7 11 4 6 1013.7 1012.9 0.0
 
Date/Time
EDT
Temp
°C
App
Temp
°C
Dew
Point
°C
Rel
Hum
%
Delta-T
°C
Wind Press
QNH
hPa
Press
MSL
hPa
Rain since
9am
mm
Dir  Spd
km/h
Gust
km/h
Spd
kts
Gust
kts
22/11:30pm 19.5 18.6 9.1 51 5.5 SSE 4 7 2 4 1013.6 1012.8 0.0
22/11:00pm 20.8 20.4 8.4 45 6.5 CALM 0 0 0 0 1013.6 1012.8 0.0
22/10:30pm 22.6 22.2 8.3 40 7.6 CALM 0 0 0 0 1013.5 1012.7 0.0
22/10:00pm 22.7 22.1 7.3 37 8.0 CALM 0 4 0 2 1013.3 1012.5 0.0
22/09:30pm 23.1 22.2 6.0 33 8.7 CALM 0 0 0 0 1013.1 1012.3 0.0
22/09:00pm 26.6 25.2 5.5 26 10.9 NE 2 7 1 4 1012.9 1012.1 0.0
22/08:30pm 28.7 26.1 4.2 21 12.6 NNE 7 9 4 5 1012.8 1012.0 0.0
22/08:00pm 30.9 27.8 3.8 18 14.0 N 9 11 5 6 1012.6 1011.8 0.0
22/07:30pm 32.5 28.1 2.5 15 15.3 N 15 22 8 12 1012.3 1011.5 0.0
22/07:00pm 33.1 28.6 2.1 14 15.8 N 15 24 8 13 1012.2 1011.4 0.0
22/06:30pm 33.8 28.5 1.6 13 16.3 NNW 19 24 10 13 1012.1 1011.3 0.0
22/06:00pm 33.8 29.0 0.5 12 16.6 N 15 24 8 13 1012.2 1011.4 0.0

Other Formats:

Comma delimited format used in spreadsheet applications
http://www.bom.gov.au/fwo/IDV60801/IDV60801.95896.axf

JavaScript Object Notation format (JSON) in row-major order
http://www.bom.gov.au/fwo/IDV60801/IDV60801.95896.json